Time;durP1;ratioP1;P1;durP2;ratioP2;P2;SDS_P1;SDS_P2;PMS_P1;PMS_P2;Temp;Humidity;BMP_temperature;BMP_pressure;BME280_temperature;BME280_humidity;BME280_pressure;Samples;Min_cycle;Max_cycle;Signal;HPM_P1;HPM_P2
2023/05/13 00:01:06;;;;;;;5.07;4.38;;;;;;;;;;5107438;28;20034;-62
2023/05/13 00:03:32;;;;;;;6.78;4.40;;;;;;;;;;5106796;28;20507;-63
2023/05/13 00:05:58;;;;;;;6.47;4.55;;;;;;;;;;5107796;28;20118;-62
2023/05/13 00:08:24;;;;;;;7.22;5.05;;;;;;;;;;5107463;28;20110;-63
2023/05/13 00:10:50;;;;;;;5.57;4.38;;;;;;;;;;5108511;28;20103;-60
2023/05/13 00:13:16;;;;;;;8.05;5.43;;;;;;;;;;5108017;28;20042;-64
2023/05/13 00:15:42;;;;;;;5.80;5.13;;;;;;;;;;5106837;28;20475;-67
2023/05/13 00:18:08;;;;;;;5.78;4.35;;;;;;;;;;5108012;28;20023;-70
2023/05/13 00:20:34;;;;;;;6.68;5.03;;;;;;;;;;5107919;28;20035;-67
2023/05/13 00:23:02;;;;;;;5.35;4.25;;;;;;;;;;5107286;28;20107;-69
2023/05/13 00:25:28;;;;;;;5.30;4.75;;;;;;;;;;5107659;28;20407;-64
2023/05/13 00:27:54;;;;;;;7.43;4.70;;;;;;;;;;5107900;28;20031;-69
2023/05/13 00:30:20;;;;;;;6.30;5.10;;;;;;;;;;5106160;28;20118;-62
2023/05/13 00:32:46;;;;;;;7.05;5.13;;;;;;;;;;5107061;28;20162;-63
2023/05/13 00:35:12;;;;;;;4.30;3.90;;;;;;;;;;5107078;28;20032;-67
2023/05/13 00:37:38;;;;;;;5.57;4.53;;;;;;;;;;5107018;28;20027;-68
2023/05/13 00:40:04;;;;;;;5.70;4.40;;;;;;;;;;5108331;28;20444;-64
2023/05/13 00:42:30;;;;;;;7.63;4.95;;;;;;;;;;5107610;28;20031;-61
2023/05/13 00:44:56;;;;;;;5.85;5.15;;;;;;;;;;5107120;28;20083;-67
2023/05/13 00:47:22;;;;;;;7.63;5.20;;;;;;;;;;5106568;28;20054;-61
2023/05/13 00:49:48;;;;;;;6.53;5.10;;;;;;;;;;5107457;28;20028;-62
2023/05/13 00:52:14;;;;;;;5.80;5.03;;;;;;;;;;5106716;28;20024;-63
2023/05/13 00:54:40;;;;;;;7.47;5.40;;;;;;;;;;5106424;28;20547;-66
2023/05/13 00:57:06;;;;;;;6.50;4.70;;;;;;;;;;5106552;28;20040;-61
2023/05/13 00:59:32;;;;;;;5.85;4.78;;;;;;;;;;5106450;28;20402;-68
2023/05/13 01:02:16;;;;;;;7.25;5.53;;;;;;;;;;5106951;28;20050;-60
2023/05/13 01:04:44;;;;;;;7.25;5.85;;;;;;;;;;5106050;28;20043;-63
2023/05/13 01:07:22;;;;;;;7.75;5.00;;;;;;;;;;5106369;28;20515;-65
2023/05/13 01:10:07;;;;;;;6.63;5.60;;;;;;;;;;5107393;28;20038;-62
2023/05/13 01:12:34;;;;;;;9.48;6.00;;;;;;;;;;5107676;28;20051;-61
2023/05/13 01:15:10;;;;;;;9.23;6.80;;;;;;;;;;5106451;28;20557;-70
2023/05/13 01:17:56;;;;;;;7.82;5.25;;;;;;;;;;5106063;28;20027;-64
2023/05/13 01:20:23;;;;;;;11.52;6.28;;;;;;;;;;5107308;28;20055;-66
2023/05/13 01:22:50;;;;;;;9.07;6.60;;;;;;;;;;5106754;28;20039;-64
2023/05/13 01:25:16;;;;;;;7.95;6.05;;;;;;;;;;5106440;28;20398;-64
2023/05/13 01:27:42;;;;;;;9.27;6.25;;;;;;;;;;5106118;28;20031;-68
2023/05/13 01:30:08;;;;;;;9.88;6.03;;;;;;;;;;5106867;28;20016;-65
2023/05/13 01:32:35;;;;;;;8.98;6.47;;;;;;;;;;5105886;28;20047;-60
2023/05/13 01:35:01;;;;;;;7.88;6.05;;;;;;;;;;5106450;28;20083;-63
2023/05/13 01:37:28;;;;;;;11.30;6.65;;;;;;;;;;5109112;28;20028;-63
2023/05/13 01:39:54;;;;;;;9.48;6.45;;;;;;;;;;5108268;28;20031;-70
2023/05/13 01:42:20;;;;;;;10.38;7.35;;;;;;;;;;5109501;28;20028;-68
2023/05/13 01:44:46;;;;;;;9.13;6.32;;;;;;;;;;5109473;28;20067;-68
2023/05/13 01:47:12;;;;;;;11.38;6.80;;;;;;;;;;5109899;28;20023;-70
2023/05/13 01:49:38;;;;;;;8.38;6.50;;;;;;;;;;5109527;28;20024;-63
2023/05/13 01:52:04;;;;;;;8.13;5.80;;;;;;;;;;5109082;28;20025;-69
2023/05/13 01:54:30;;;;;;;10.07;7.40;;;;;;;;;;5110110;28;20748;-65
2023/05/13 01:56:56;;;;;;;11.60;6.45;;;;;;;;;;5110075;28;20024;-68
2023/05/13 01:59:22;;;;;;;10.77;7.47;;;;;;;;;;5109396;28;20056;-67
2023/05/13 02:01:48;;;;;;;14.15;8.13;;;;;;;;;;5109426;28;20520;-69
2023/05/13 02:04:14;;;;;;;11.35;7.10;;;;;;;;;;5109526;28;20043;-68
2023/05/13 02:06:40;;;;;;;10.55;7.32;;;;;;;;;;5109569;28;20032;-68
2023/05/13 02:09:06;;;;;;;13.45;7.18;;;;;;;;;;5110250;28;20028;-69
2023/05/13 02:11:32;;;;;;;8.73;7.30;;;;;;;;;;5110662;28;20024;-68
2023/05/13 02:13:58;;;;;;;11.23;8.23;;;;;;;;;;5109674;28;20076;-62
2023/05/13 02:16:24;;;;;;;12.48;7.03;;;;;;;;;;5109071;28;20055;-69
2023/05/13 02:18:50;;;;;;;10.70;7.20;;;;;;;;;;5110653;28;20027;-69
2023/05/13 02:21:16;;;;;;;13.18;7.80;;;;;;;;;;5113355;28;20031;-70
2023/05/13 02:23:42;;;;;;;12.70;8.80;;;;;;;;;;5113312;28;20032;-70
2023/05/13 02:26:08;;;;;;;13.40;9.13;;;;;;;;;;5113472;28;20023;-66
2023/05/13 02:28:34;;;;;;;12.50;8.25;;;;;;;;;;5110418;28;20427;-67
2023/05/13 02:31:00;;;;;;;12.05;8.52;;;;;;;;;;5109210;28;20029;-69
2023/05/13 02:33:26;;;;;;;15.60;10.30;;;;;;;;;;5109278;28;20023;-65
2023/05/13 02:35:52;;;;;;;13.30;9.15;;;;;;;;;;5108670;28;20034;-66
2023/05/13 02:38:18;;;;;;;11.07;8.80;;;;;;;;;;5109007;28;20043;-68
2023/05/13 02:40:44;;;;;;;13.15;10.45;;;;;;;;;;5108608;28;20376;-62
2023/05/13 02:43:10;;;;;;;13.00;8.45;;;;;;;;;;5108961;28;20059;-65
2023/05/13 02:45:36;;;;;;;11.55;7.60;;;;;;;;;;5108112;28;20072;-64
2023/05/13 02:48:02;;;;;;;13.07;9.30;;;;;;;;;;5108735;28;20029;-69
2023/05/13 02:50:28;;;;;;;13.20;8.63;;;;;;;;;;5108979;28;20035;-61
2023/05/13 02:52:54;;;;;;;14.32;9.10;;;;;;;;;;5108158;28;20402;-63
2023/05/13 02:55:20;;;;;;;13.93;9.02;;;;;;;;;;5108124;28;20032;-64
2023/05/13 02:57:46;;;;;;;10.50;8.57;;;;;;;;;;5108339;28;20149;-66
2023/05/13 03:00:12;;;;;;;11.07;7.55;;;;;;;;;;5108090;28;20098;-68
2023/05/13 03:02:38;;;;;;;11.25;8.63;;;;;;;;;;5108269;28;20039;-66
2023/05/13 03:05:04;;;;;;;18.00;10.55;;;;;;;;;;5108493;28;20023;-70
2023/05/13 03:07:30;;;;;;;12.02;9.57;;;;;;;;;;5108036;28;20036;-70
2023/05/13 03:09:56;;;;;;;14.95;11.27;;;;;;;;;;5108510;28;20046;-63
2023/05/13 03:12:22;;;;;;;13.10;10.00;;;;;;;;;;5108443;28;20479;-67
2023/05/13 03:14:48;;;;;;;13.68;10.02;;;;;;;;;;5108155;28;20125;-66
2023/05/13 03:17:14;;;;;;;11.05;9.10;;;;;;;;;;5108135;28;20864;-66
2023/05/13 03:19:40;;;;;;;13.60;9.98;;;;;;;;;;5109440;28;20034;-64
2023/05/13 03:22:06;;;;;;;12.27;8.40;;;;;;;;;;5108182;28;20028;-68
2023/05/13 03:24:32;;;;;;;14.05;10.25;;;;;;;;;;5109168;28;20172;-67
2023/05/13 03:26:58;;;;;;;14.65;9.45;;;;;;;;;;5108476;28;20560;-61
2023/05/13 03:29:24;;;;;;;14.93;9.48;;;;;;;;;;5108524;28;20023;-62
2023/05/13 03:31:50;;;;;;;11.98;8.38;;;;;;;;;;5108035;28;20119;-61
2023/05/13 03:34:16;;;;;;;15.05;9.38;;;;;;;;;;5107863;28;20098;-61
2023/05/13 03:36:42;;;;;;;12.10;9.05;;;;;;;;;;5109659;28;20035;-62
2023/05/13 03:39:09;;;;;;;11.77;8.48;;;;;;;;;;5109065;28;20023;-68
2023/05/13 03:41:35;;;;;;;13.70;8.75;;;;;;;;;;5108769;28;20024;-62
2023/05/13 03:44:01;;;;;;;12.57;8.85;;;;;;;;;;5107439;28;20499;-71
2023/05/13 03:46:27;;;;;;;13.00;9.05;;;;;;;;;;5107957;28;20027;-62
2023/05/13 03:48:54;;;;;;;12.48;8.73;;;;;;;;;;5107813;28;20106;-64
2023/05/13 03:51:20;;;;;;;12.43;8.07;;;;;;;;;;5107556;28;20035;-67
2023/05/13 03:53:46;;;;;;;12.52;9.02;;;;;;;;;;5107537;28;20024;-67
2023/05/13 03:56:12;;;;;;;13.07;8.70;;;;;;;;;;5109991;28;20547;-62
2023/05/13 03:58:38;;;;;;;14.35;7.97;;;;;;;;;;5107547;28;20026;-62
2023/05/13 04:01:05;;;;;;;12.25;7.68;;;;;;;;;;5107716;28;20031;-68
2023/05/13 04:03:31;;;;;;;13.63;8.85;;;;;;;;;;5107176;28;20031;-68
2023/05/13 04:05:57;;;;;;;10.57;8.07;;;;;;;;;;5106559;28;20031;-65
2023/05/13 04:08:23;;;;;;;16.90;8.77;;;;;;;;;;5107487;28;20019;-60
2023/05/13 04:10:49;;;;;;;14.43;8.85;;;;;;;;;;5109044;28;20076;-69
2023/05/13 04:13:15;;;;;;;11.00;8.35;;;;;;;;;;5108445;28;20015;-66
2023/05/13 04:15:41;;;;;;;9.90;7.68;;;;;;;;;;5106696;28;20031;-65
2023/05/13 04:18:07;;;;;;;14.35;8.55;;;;;;;;;;5107554;28;20032;-66
2023/05/13 04:20:33;;;;;;;13.25;9.55;;;;;;;;;;5107766;28;20032;-61
2023/05/13 04:23:00;;;;;;;10.85;7.13;;;;;;;;;;5106984;28;20024;-68
2023/05/13 04:25:26;;;;;;;13.30;8.88;;;;;;;;;;5107967;28;20032;-69
2023/05/13 04:27:52;;;;;;;16.58;10.38;;;;;;;;;;5106997;28;20036;-69
2023/05/13 04:30:18;;;;;;;12.38;8.55;;;;;;;;;;5106903;28;20023;-68
2023/05/13 04:32:44;;;;;;;13.35;8.32;;;;;;;;;;5106712;28;20023;-69
2023/05/13 04:35:10;;;;;;;10.73;8.48;;;;;;;;;;5106875;28;20035;-69
2023/05/13 04:37:37;;;;;;;10.48;8.68;;;;;;;;;;5106583;28;20055;-61
2023/05/13 04:40:03;;;;;;;16.27;8.20;;;;;;;;;;5107506;28;20051;-69
2023/05/13 04:42:29;;;;;;;12.90;9.02;;;;;;;;;;5107138;28;20032;-67
2023/05/13 04:44:55;;;;;;;13.05;9.18;;;;;;;;;;5105033;28;20148;-69
2023/05/13 04:47:22;;;;;;;14.45;11.32;;;;;;;;;;5106534;28;20041;-69
2023/05/13 04:49:48;;;;;;;12.15;7.85;;;;;;;;;;5106405;28;20102;-65
2023/05/13 04:52:14;;;;;;;12.38;7.97;;;;;;;;;;5106737;28;20095;-69
2023/05/13 04:54:40;;;;;;;15.20;9.07;;;;;;;;;;5107451;28;20020;-68
2023/05/13 04:57:06;;;;;;;14.75;8.88;;;;;;;;;;5106497;28;20465;-61
2023/05/13 04:59:32;;;;;;;12.57;8.85;;;;;;;;;;5106651;28;20376;-69
2023/05/13 05:01:58;;;;;;;12.60;8.82;;;;;;;;;;5107421;28;20487;-62
2023/05/13 05:04:24;;;;;;;12.60;8.20;;;;;;;;;;5107137;28;20032;-63
2023/05/13 05:06:50;;;;;;;15.23;9.40;;;;;;;;;;5106579;28;20028;-69
2023/05/13 05:09:17;;;;;;;16.88;10.10;;;;;;;;;;5108055;28;20015;-69
2023/05/13 05:11:43;;;;;;;12.57;8.48;;;;;;;;;;5108366;28;20085;-67
2023/05/13 05:14:09;;;;;;;14.90;9.98;;;;;;;;;;5105906;28;20032;-70
2023/05/13 05:16:35;;;;;;;15.48;10.15;;;;;;;;;;5106888;28;20123;-68
2023/05/13 05:19:01;;;;;;;15.32;9.88;;;;;;;;;;5112007;28;20027;-69
2023/05/13 05:21:27;;;;;;;16.05;9.65;;;;;;;;;;5111681;28;20031;-68
2023/05/13 05:23:53;;;;;;;15.55;9.95;;;;;;;;;;5113832;28;20063;-69
2023/05/13 05:26:21;;;;;;;11.23;7.97;;;;;;;;;;5115035;28;20028;-68
2023/05/13 05:28:47;;;;;;;10.95;8.90;;;;;;;;;;5114504;28;20491;-70
2023/05/13 05:31:13;;;;;;;12.07;8.93;;;;;;;;;;5114696;28;20068;-70
2023/05/13 05:33:40;;;;;;;11.60;7.57;;;;;;;;;;5114778;28;20480;-68
2023/05/13 05:36:06;;;;;;;14.80;9.80;;;;;;;;;;5114831;28;20480;-70
2023/05/13 05:38:32;;;;;;;15.00;10.20;;;;;;;;;;5114747;28;20046;-70
2023/05/13 05:40:58;;;;;;;11.43;9.70;;;;;;;;;;5114654;28;20428;-62
2023/05/13 05:43:24;;;;;;;15.18;9.13;;;;;;;;;;5112173;28;20046;-70
2023/05/13 05:45:50;;;;;;;13.50;8.43;;;;;;;;;;5109733;28;20023;-69
2023/05/13 05:48:16;;;;;;;12.82;8.45;;;;;;;;;;5110097;28;20030;-68
2023/05/13 05:50:42;;;;;;;16.13;9.48;;;;;;;;;;5109794;28;20019;-69
2023/05/13 05:53:08;;;;;;;11.73;7.97;;;;;;;;;;5109987;28;20383;-66
2023/05/13 05:55:34;;;;;;;13.07;9.35;;;;;;;;;;5110195;28;20088;-70
2023/05/13 05:58:04;;;;;;;11.90;8.77;;;;;;;;;;5110405;28;20495;-70
2023/05/13 06:00:30;;;;;;;13.30;8.98;;;;;;;;;;5110689;28;20024;-69
2023/05/13 06:02:56;;;;;;;11.10;8.13;;;;;;;;;;5110304;28;20066;-67
2023/05/13 06:05:22;;;;;;;9.55;8.05;;;;;;;;;;5109899;28;20032;-70
2023/05/13 06:07:48;;;;;;;13.68;9.23;;;;;;;;;;5110372;28;20475;-69
2023/05/13 06:10:14;;;;;;;13.48;9.50;;;;;;;;;;5111726;28;20042;-70
2023/05/13 06:12:40;;;;;;;10.90;7.93;;;;;;;;;;5110570;28;20092;-69
2023/05/13 06:15:09;;;;;;;12.13;8.77;;;;;;;;;;5110405;28;20052;-70
2023/05/13 06:17:35;;;;;;;16.48;9.90;;;;;;;;;;5109628;28;20025;-69
2023/05/13 06:20:02;;;;;;;11.55;8.73;;;;;;;;;;5110989;28;20381;-68
2023/05/13 06:22:28;;;;;;;10.85;7.63;;;;;;;;;;5110690;28;20030;-69
2023/05/13 06:24:54;;;;;;;13.00;9.23;;;;;;;;;;5110010;28;20100;-67
2023/05/13 06:27:20;;;;;;;13.82;8.70;;;;;;;;;;5110178;28;20031;-70
2023/05/13 06:29:46;;;;;;;11.60;8.60;;;;;;;;;;5108642;28;20035;-69
2023/05/13 06:32:12;;;;;;;14.18;10.05;;;;;;;;;;5107056;28;20020;-67
2023/05/13 06:34:39;;;;;;;15.38;8.90;;;;;;;;;;5109502;27;20452;-69
2023/05/13 06:37:05;;;;;;;12.88;8.45;;;;;;;;;;5109444;28;20046;-70
2023/05/13 06:39:31;;;;;;;13.68;8.23;;;;;;;;;;5110610;28;20024;-68
2023/05/13 06:41:57;;;;;;;12.50;8.80;;;;;;;;;;5110349;28;20035;-67
2023/05/13 06:44:23;;;;;;;12.75;9.10;;;;;;;;;;5109233;28;20040;-70
2023/05/13 06:46:49;;;;;;;11.25;7.85;;;;;;;;;;5109131;28;20020;-69
2023/05/13 06:49:15;;;;;;;13.43;8.23;;;;;;;;;;5109252;28;20035;-69
2023/05/13 06:51:41;;;;;;;14.15;9.23;;;;;;;;;;5108746;28;20026;-66
2023/05/13 06:54:07;;;;;;;13.02;8.45;;;;;;;;;;5109180;28;20039;-65
2023/05/13 06:56:33;;;;;;;12.60;8.55;;;;;;;;;;5109274;28;20475;-69
2023/05/13 06:58:59;;;;;;;12.35;8.30;;;;;;;;;;5109196;28;20038;-64
2023/05/13 07:01:25;;;;;;;15.70;8.25;;;;;;;;;;5108537;28;20523;-70
2023/05/13 07:03:51;;;;;;;14.38;9.90;;;;;;;;;;5109154;28;20040;-70
2023/05/13 07:06:17;;;;;;;11.48;8.30;;;;;;;;;;5109143;28;20031;-70
2023/05/13 07:08:43;;;;;;;13.95;8.13;;;;;;;;;;5108334;28;20023;-70
2023/05/13 07:11:09;;;;;;;13.98;7.32;;;;;;;;;;5110404;28;20075;-68
2023/05/13 07:13:35;;;;;;;13.13;7.45;;;;;;;;;;5108251;28;20023;-69
2023/05/13 07:16:01;;;;;;;13.77;7.05;;;;;;;;;;5109033;28;20500;-69
2023/05/13 07:18:28;;;;;;;10.75;9.18;;;;;;;;;;5109726;28;20030;-67
2023/05/13 07:20:55;;;;;;;12.43;9.38;;;;;;;;;;5109004;28;20063;-69
2023/05/13 07:23:21;;;;;;;13.85;8.48;;;;;;;;;;5109371;28;20051;-70
2023/05/13 07:25:48;;;;;;;13.15;8.45;;;;;;;;;;5108659;28;20391;-70
2023/05/13 07:28:14;;;;;;;13.45;8.00;;;;;;;;;;5108524;28;20032;-69
2023/05/13 07:30:40;;;;;;;10.48;7.45;;;;;;;;;;5109138;28;20031;-65
2023/05/13 07:33:06;;;;;;;11.95;8.25;;;;;;;;;;5108246;28;20396;-68
2023/05/13 07:35:32;;;;;;;14.40;9.40;;;;;;;;;;5108921;28;20031;-67
2023/05/13 07:37:58;;;;;;;11.32;7.78;;;;;;;;;;5101673;28;20024;-61
2023/05/13 07:40:24;;;;;;;13.82;8.80;;;;;;;;;;5112640;28;20030;-69
2023/05/13 07:42:50;;;;;;;15.00;8.77;;;;;;;;;;5111976;28;20023;-68
2023/05/13 07:45:16;;;;;;;13.48;8.18;;;;;;;;;;5112221;28;20027;-65
2023/05/13 07:47:42;;;;;;;16.35;7.05;;;;;;;;;;5109692;28;20419;-63
2023/05/13 07:50:08;;;;;;;9.68;7.85;;;;;;;;;;5105719;28;20027;-67
2023/05/13 07:52:35;;;;;;;14.38;7.93;;;;;;;;;;5106984;28;20155;-63
2023/05/13 07:55:01;;;;;;;14.25;9.30;;;;;;;;;;5106452;28;20077;-69
2023/05/13 07:57:27;;;;;;;18.90;9.23;;;;;;;;;;5106483;28;20117;-68
2023/05/13 07:59:53;;;;;;;17.75;9.45;;;;;;;;;;5106702;28;20128;-69
2023/05/13 08:02:19;;;;;;;18.42;8.68;;;;;;;;;;5106953;28;20517;-65
2023/05/13 08:04:45;;;;;;;14.48;8.88;;;;;;;;;;5106092;28;20558;-61
2023/05/13 08:07:11;;;;;;;20.02;8.43;;;;;;;;;;5106517;28;20115;-66
2023/05/13 08:09:37;;;;;;;11.90;8.95;;;;;;;;;;5107422;28;20027;-69
2023/05/13 08:12:03;;;;;;;15.48;10.00;;;;;;;;;;5108438;28;20028;-63
2023/05/13 08:14:29;;;;;;;18.05;8.13;;;;;;;;;;5107059;28;20120;-64
2023/05/13 08:16:56;;;;;;;12.77;8.57;;;;;;;;;;5107861;28;20032;-66
2023/05/13 08:19:21;;;;;;;17.77;8.43;;;;;;;;;;5108455;28;20034;-63
2023/05/13 08:21:48;;;;;;;13.60;7.88;;;;;;;;;;5107672;28;20390;-63
2023/05/13 08:24:14;;;;;;;15.38;9.55;;;;;;;;;;5107069;28;20027;-69
2023/05/13 08:26:40;;;;;;;17.95;8.93;;;;;;;;;;5107450;27;20111;-72
2023/05/13 08:29:06;;;;;;;17.02;9.90;;;;;;;;;;5107237;28;20110;-69
2023/05/13 08:31:32;;;;;;;16.05;8.65;;;;;;;;;;5107350;28;20039;-70
2023/05/13 08:33:58;;;;;;;12.00;7.47;;;;;;;;;;5107713;28;20122;-68
2023/05/13 08:36:25;;;;;;;14.25;9.43;;;;;;;;;;5106550;28;20099;-66
2023/05/13 08:38:51;;;;;;;12.50;6.65;;;;;;;;;;5106865;28;20046;-73
2023/05/13 08:41:17;;;;;;;14.02;7.07;;;;;;;;;;5109946;28;20555;-72
2023/05/13 08:43:43;;;;;;;13.10;8.20;;;;;;;;;;5107416;28;20019;-73
2023/05/13 08:46:10;;;;;;;17.65;7.68;;;;;;;;;;5107777;28;20036;-73
2023/05/13 08:48:37;;;;;;;14.63;8.68;;;;;;;;;;5107046;28;20020;-67
2023/05/13 08:51:04;;;;;;;13.70;7.95;;;;;;;;;;5108337;28;20102;-75
2023/05/13 08:53:33;;;;;;;12.82;8.40;;;;;;;;;;5113345;28;20066;-71
2023/05/13 08:55:59;;;;;;;11.02;6.30;;;;;;;;;;5112851;28;20417;-74
2023/05/13 08:58:26;;;;;;;17.58;7.75;;;;;;;;;;5114769;27;20103;-66
2023/05/13 09:00:55;;;;;;;13.40;7.88;;;;;;;;;;5113517;27;20027;-67
2023/05/13 09:03:21;;;;;;;11.90;7.40;;;;;;;;;;5113549;27;20063;-69
2023/05/13 09:05:47;;;;;;;16.45;7.72;;;;;;;;;;5113701;27;20510;-71
2023/05/13 09:08:13;;;;;;;16.05;7.65;;;;;;;;;;5114265;28;20039;-64
2023/05/13 09:10:40;;;;;;;18.65;7.55;;;;;;;;;;5114156;27;20100;-69
2023/05/13 09:13:06;;;;;;;18.30;7.72;;;;;;;;;;5115578;27;20491;-73
2023/05/13 09:15:32;;;;;;;20.23;7.82;;;;;;;;;;5114265;27;20497;-75
2023/05/13 09:18:00;;;;;;;19.15;8.13;;;;;;;;;;5113511;27;20487;-67
2023/05/13 09:20:26;;;;;;;15.57;7.45;;;;;;;;;;5115275;27;20120;-75
2023/05/13 09:22:53;;;;;;;19.58;8.73;;;;;;;;;;5114765;27;20023;-73
2023/05/13 09:25:22;;;;;;;14.82;8.80;;;;;;;;;;5113496;28;20114;-73
2023/05/13 09:27:54;;;;;;;14.68;7.55;;;;;;;;;;5112893;28;20115;-72
2023/05/13 09:30:20;;;;;;;17.10;8.88;;;;;;;;;;5113067;27;20631;-72
2023/05/13 09:33:04;;;;;;;17.30;7.97;;;;;;;;;;5114714;27;20019;-74
2023/05/13 09:35:31;;;;;;;17.90;8.07;;;;;;;;;;5113046;27;20509;-67
2023/05/13 09:37:57;;;;;;;17.27;7.97;;;;;;;;;;5112636;28;20059;-73
2023/05/13 09:40:23;;;;;;;16.10;8.60;;;;;;;;;;5116088;27;20494;-73
2023/05/13 09:42:49;;;;;;;16.58;7.95;;;;;;;;;;5114309;27;20031;-72
2023/05/13 09:45:16;;;;;;;15.73;6.68;;;;;;;;;;5113301;28;20039;-72
2023/05/13 09:47:42;;;;;;;14.93;7.25;;;;;;;;;;5113508;27;20031;-71
2023/05/13 09:50:09;;;;;;;15.70;7.18;;;;;;;;;;5113142;27;20024;-64
2023/05/13 09:52:36;;;;;;;13.52;6.45;;;;;;;;;;5113367;27;20031;-74
2023/05/13 09:55:05;;;;;;;10.77;6.35;;;;;;;;;;5113812;27;20043;-71
2023/05/13 09:57:32;;;;;;;14.88;7.35;;;;;;;;;;5113003;27;20028;-74
2023/05/13 09:59:58;;;;;;;13.43;6.97;;;;;;;;;;5113562;27;20039;-64
2023/05/13 10:02:25;;;;;;;12.95;6.55;;;;;;;;;;5113478;27;20051;-69
2023/05/13 10:04:52;;;;;;;10.35;6.47;;;;;;;;;;5110233;28;20042;-63
2023/05/13 10:07:23;;;;;;;17.70;7.28;;;;;;;;;;5108953;28;20483;-72
2023/05/13 10:09:49;;;;;;;14.73;7.60;;;;;;;;;;5110326;28;20035;-72
2023/05/13 10:12:15;;;;;;;14.57;7.13;;;;;;;;;;5110534;28;20073;-62
2023/05/13 10:14:41;;;;;;;17.42;6.70;;;;;;;;;;5109461;28;20028;-64
2023/05/13 10:17:08;;;;;;;15.80;6.75;;;;;;;;;;5110942;28;20019;-67
2023/05/13 10:19:34;;;;;;;13.45;7.00;;;;;;;;;;5111006;28;20093;-61
2023/05/13 10:22:00;;;;;;;11.52;6.53;;;;;;;;;;5110611;28;20023;-61
2023/05/13 10:24:27;;;;;;;11.57;5.95;;;;;;;;;;5110568;28;20035;-63
2023/05/13 10:26:54;;;;;;;13.60;6.07;;;;;;;;;;5109435;28;20032;-63
2023/05/13 10:29:22;;;;;;;13.52;7.15;;;;;;;;;;5108734;28;20128;-71
2023/05/13 10:31:48;;;;;;;15.77;7.47;;;;;;;;;;5109051;28;20059;-61
2023/05/13 10:34:15;;;;;;;12.05;7.03;;;;;;;;;;5109959;28;20027;-61
2023/05/13 10:36:43;;;;;;;16.00;5.95;;;;;;;;;;5109235;27;20505;-61
2023/05/13 10:39:09;;;;;;;11.75;6.57;;;;;;;;;;5109179;28;20024;-66
2023/05/13 10:41:59;;;;;;;10.38;6.05;;;;;;;;;;5110451;28;20031;-66
2023/05/13 10:44:25;;;;;;;18.40;6.93;;;;;;;;;;5072766;28;20111;-62
2023/05/13 10:46:51;;;;;;;11.90;6.97;;;;;;;;;;5109907;28;20024;-64
2023/05/13 10:49:17;;;;;;;12.73;6.72;;;;;;;;;;5113332;27;20051;-62
2023/05/13 10:51:48;;;;;;;15.20;8.75;;;;;;;;;;5112146;27;20157;-62
2023/05/13 10:54:20;;;;;;;11.90;6.50;;;;;;;;;;5108294;28;20027;-64
2023/05/13 10:56:55;;;;;;;13.85;7.15;;;;;;;;;;5108879;28;20041;-63
2023/05/13 10:59:21;;;;;;;16.90;6.15;;;;;;;;;;5108628;28;20039;-62
2023/05/13 11:01:48;;;;;;;18.10;6.93;;;;;;;;;;5108443;28;20424;-63
2023/05/13 11:04:15;;;;;;;12.38;7.13;;;;;;;;;;5109625;28;20042;-62
2023/05/13 11:06:43;;;;;;;13.13;6.70;;;;;;;;;;5109158;28;20051;-63
2023/05/13 11:09:13;;;;;;;13.30;7.28;;;;;;;;;;5108828;28;20499;-62
2023/05/13 11:11:39;;;;;;;12.43;6.78;;;;;;;;;;5110552;28;20491;-60
2023/05/13 11:14:08;;;;;;;12.20;7.63;;;;;;;;;;5108809;28;20066;-62
2023/05/13 11:16:35;;;;;;;10.75;7.13;;;;;;;;;;5108304;28;20031;-63
2023/05/13 11:19:04;;;;;;;14.73;6.00;;;;;;;;;;5109921;28;20028;-63
2023/05/13 11:21:31;;;;;;;10.48;6.45;;;;;;;;;;5110030;28;20027;-63
2023/05/13 11:24:04;;;;;;;11.60;6.60;;;;;;;;;;5108712;27;20028;-63
2023/05/13 11:26:49;;;;;;;9.20;5.97;;;;;;;;;;5108210;28;20027;-63
2023/05/13 11:29:15;;;;;;;10.52;6.63;;;;;;;;;;5107735;28;20517;-63
2023/05/13 11:31:45;;;;;;;11.90;7.22;;;;;;;;;;5111806;28;20051;-62
2023/05/13 11:34:11;;;;;;;12.18;7.25;;;;;;;;;;5112797;28;20387;-63
2023/05/13 11:36:42;;;;;;;12.05;7.55;;;;;;;;;;5112120;28;20020;-63
2023/05/13 11:39:15;;;;;;;9.07;6.90;;;;;;;;;;5112735;28;20069;-63
2023/05/13 11:41:42;;;;;;;10.30;7.55;;;;;;;;;;5112511;28;20028;-63
2023/05/13 11:44:10;;;;;;;12.27;7.13;;;;;;;;;;5110794;28;20055;-63
2023/05/13 11:46:36;;;;;;;10.02;6.90;;;;;;;;;;5111092;28;20378;-62
2023/05/13 11:49:02;;;;;;;13.10;8.13;;;;;;;;;;5112310;28;20048;-62
2023/05/13 11:51:30;;;;;;;19.75;13.35;;;;;;;;;;5112378;28;20027;-63
2023/05/13 11:53:59;;;;;;;16.63;10.80;;;;;;;;;;5112692;28;20404;-63
2023/05/13 11:56:27;;;;;;;10.45;7.97;;;;;;;;;;5112497;28;20028;-63
2023/05/13 11:58:53;;;;;;;10.82;8.60;;;;;;;;;;5112515;28;20024;-64
2023/05/13 12:01:20;;;;;;;10.57;7.75;;;;;;;;;;5112264;28;20479;-63
2023/05/13 12:03:46;;;;;;;16.33;12.60;;;;;;;;;;5111699;28;20039;-63
2023/05/13 12:06:12;;;;;;;13.75;9.15;;;;;;;;;;5112272;28;20023;-63
2023/05/13 12:08:45;;;;;;;11.98;8.52;;;;;;;;;;5111747;28;20023;-63
2023/05/13 12:11:12;;;;;;;13.20;8.93;;;;;;;;;;5112067;28;20383;-62
2023/05/13 12:13:41;;;;;;;11.32;8.75;;;;;;;;;;5111765;28;20030;-61
2023/05/13 12:16:07;;;;;;;11.63;9.07;;;;;;;;;;5112057;28;20506;-61
2023/05/13 12:18:33;;;;;;;13.73;9.65;;;;;;;;;;5111806;28;20078;-62
2023/05/13 12:20:59;;;;;;;13.57;11.50;;;;;;;;;;5111783;28;20119;-61
2023/05/13 12:23:25;;;;;;;14.52;10.00;;;;;;;;;;5111562;28;20024;-62
2023/05/13 12:25:52;;;;;;;15.00;9.85;;;;;;;;;;5110751;28;20035;-62
2023/05/13 12:28:22;;;;;;;12.98;9.05;;;;;;;;;;5109121;28;20377;-64
2023/05/13 12:30:48;;;;;;;11.75;10.05;;;;;;;;;;5109384;28;20031;-63
2023/05/13 12:33:21;;;;;;;11.60;10.18;;;;;;;;;;5109994;28;20475;-64
2023/05/13 12:35:48;;;;;;;13.13;9.93;;;;;;;;;;5109622;28;20042;-62
2023/05/13 12:38:18;;;;;;;13.68;10.02;;;;;;;;;;5106988;28;20092;-65
2023/05/13 12:40:45;;;;;;;11.18;10.02;;;;;;;;;;5110231;28;20051;-67
2023/05/13 12:43:12;;;;;;;15.70;10.70;;;;;;;;;;5111597;28;20020;-62
2023/05/13 12:45:38;;;;;;;14.95;11.05;;;;;;;;;;5111260;28;20035;-62
2023/05/13 12:48:04;;;;;;;13.75;10.60;;;;;;;;;;5110325;28;20023;-63
2023/05/13 12:50:30;;;;;;;16.63;11.13;;;;;;;;;;5103431;28;20043;-62
2023/05/13 12:52:58;;;;;;;15.20;11.48;;;;;;;;;;5091248;28;20392;-63
2023/05/13 12:55:26;;;;;;;18.95;11.82;;;;;;;;;;5111142;28;20069;-61
2023/05/13 12:57:56;;;;;;;13.73;11.73;;;;;;;;;;5111133;28;20023;-62
2023/05/13 13:00:22;;;;;;;13.32;11.55;;;;;;;;;;5110735;28;20400;-62
2023/05/13 13:02:48;;;;;;;13.23;11.82;;;;;;;;;;5109648;28;20035;-62
2023/05/13 13:05:14;;;;;;;15.20;11.88;;;;;;;;;;5110035;28;20043;-62
2023/05/13 13:07:41;;;;;;;15.63;12.38;;;;;;;;;;5111338;28;20105;-61
2023/05/13 13:10:08;;;;;;;14.95;12.05;;;;;;;;;;5111441;28;20035;-64
2023/05/13 13:12:34;;;;;;;13.63;11.90;;;;;;;;;;5111228;28;20028;-62
2023/05/13 13:15:00;;;;;;;14.27;11.55;;;;;;;;;;5111093;28;20028;-62
2023/05/13 13:17:26;;;;;;;16.90;11.82;;;;;;;;;;5110277;28;20032;-62
2023/05/13 13:19:52;;;;;;;17.23;12.88;;;;;;;;;;5109929;28;20034;-62
2023/05/13 13:22:18;;;;;;;15.95;12.95;;;;;;;;;;5111300;28;20498;-62
2023/05/13 13:24:44;;;;;;;14.35;11.98;;;;;;;;;;5110940;28;20067;-62
2023/05/13 13:27:10;;;;;;;13.93;12.43;;;;;;;;;;5110517;28;20034;-62
2023/05/13 13:29:36;;;;;;;15.32;12.18;;;;;;;;;;5110236;28;20023;-63
2023/05/13 13:32:03;;;;;;;15.10;12.57;;;;;;;;;;5111157;28;20020;-62
2023/05/13 13:34:28;;;;;;;16.95;13.20;;;;;;;;;;5110891;28;20083;-62
2023/05/13 13:36:54;;;;;;;13.73;12.32;;;;;;;;;;5111398;28;20020;-61
2023/05/13 13:39:20;;;;;;;14.35;12.85;;;;;;;;;;5113965;28;20071;-61
2023/05/13 13:41:46;;;;;;;14.60;13.10;;;;;;;;;;5113657;28;20552;-64
2023/05/13 13:44:13;;;;;;;14.80;12.63;;;;;;;;;;5112986;28;20038;-60
2023/05/13 13:46:39;;;;;;;14.10;12.40;;;;;;;;;;5113868;27;20455;-61
2023/05/13 13:49:05;;;;;;;13.27;11.85;;;;;;;;;;5113769;28;20027;-61
2023/05/13 13:51:31;;;;;;;16.27;13.05;;;;;;;;;;5114514;28;20352;-61
2023/05/13 13:53:57;;;;;;;15.00;13.07;;;;;;;;;;5115022;28;20028;-61
2023/05/13 13:56:23;;;;;;;14.07;12.15;;;;;;;;;;5114316;27;20141;-61
2023/05/13 13:58:49;;;;;;;15.43;13.50;;;;;;;;;;5114531;28;20030;-62
2023/05/13 14:01:15;;;;;;;15.15;13.40;;;;;;;;;;5114524;28;20019;-64
2023/05/13 14:03:41;;;;;;;14.52;13.10;;;;;;;;;;5114099;28;20031;-62
2023/05/13 14:06:07;;;;;;;15.30;13.50;;;;;;;;;;5114543;28;20028;-63
2023/05/13 14:08:33;;;;;;;14.25;12.75;;;;;;;;;;5113826;28;20027;-64
2023/05/13 14:10:59;;;;;;;14.55;12.90;;;;;;;;;;5113571;28;20089;-62
2023/05/13 14:13:25;;;;;;;15.77;14.05;;;;;;;;;;5113025;28;20104;-63
2023/05/13 14:15:51;;;;;;;15.57;13.25;;;;;;;;;;5112591;28;20548;-62
2023/05/13 14:18:17;;;;;;;14.82;12.73;;;;;;;;;;5112959;28;20103;-63
2023/05/13 14:20:43;;;;;;;17.15;13.82;;;;;;;;;;5112304;28;20498;-62
2023/05/13 14:23:09;;;;;;;14.75;13.23;;;;;;;;;;5113258;28;20038;-63
2023/05/13 14:25:35;;;;;;;16.33;12.80;;;;;;;;;;5113476;28;20055;-62